Ninole, HI (96773)

11:26 PM HST on April 17, 2015 (GMT -1000)
Hamakua Coast | | Change Station
CLOSE
Current Station
Personal Weather Station
Location: Ninole, HI
Elevation: 1120 ft
Nearby Weather Stations

Elev 1120 ft 19.92 °N, 155.18 °W | Updated 7 minutes ago

Mostly Cloudy
Mostly Cloudy
68.4 °F
Feels Like 68.4 °F
N
5.0
Wind Variable Wind from ESE

Today
High -- | Low -- °F
--% Chance of Precip.
Yesterday
High -- | Low -- °F
Precip. -- in
6:01 AM 6:39 PM
Waning Crescent, 0% visible
Pressure 30.15 in
Visibility 10.0 miles
Clouds Mostly Cloudy 2800 ft
Mostly Cloudy 3800 ft
Dew Point 65 °F
Humidity 89%
Rainfall in
Snow Depth Not available.
UV 0 out of 12
Pollen Not available.
Air Quality Not available.
Flu Activity Regional
SPECI PHTO 180907Z AUTO 23007KT 10SM BKN028 BKN038 20/18 A3015 RMK AO2 T02000183 TSNO

More Conditions Fewer Conditions

Pressure 30.15 in
Visibility 10.0 miles
Clouds Mostly Cloudy 2800 ft
Mostly Cloudy 3800 ft
Dew Point 65 °F
Humidity 89%
Rainfall in
Snow Depth Not available.
UV 0 out of 12
Pollen Not available.
Air Quality Not available.
Flu Activity Regional
SPECI PHTO 180907Z AUTO 23007KT 10SM BKN028 BKN038 20/18 A3015 RMK AO2 T02000183 TSNO

More Conditions Fewer Conditions

10-Day Weather Forecast

Almanac

Astronomy

Apr. 17, 2015 Rise Set
Actual Time
Civil Twilight
Nautical Twilight
Astronomical Twilight
Moon
Length of Visible Light
Length of Day
Tomorrow will be .
, % of the Moon is Illuminated

Today's Extremes

State Highs State Lows

Community

WunderPhotos

Upload Photos

1,814,350 photos uploaded!

WunderBlogs® & News

Nearby

Air Quality

  Air Quality AQ Index Pollutant
Not available.

Snow Depth

Station Depth Elevation

Earthquake Activity

City Distance Mag. Time & Date
Minimum magnitude displayed is 2.5.

Coastal Water Temperatures

Place Temperature

Stations

Nearby Weather Stations

Station Location Temp. Windchill Dew Point Humidity Wind Precip. Elev Updated Type